Time;durP1;ratioP1;P1;durP2;ratioP2;P2;SDS_P1;SDS_P2;PMS_P1;PMS_P2;Temp;Humidity;BMP_temperature;BMP_pressure;BME280_temperature;BME280_humidity;BME280_pressure;Samples;Min_cycle;Max_cycle;Signal;HPM_P1;HPM_P2
2022/05/15 00:02:24;;;;;;;8.57;5.70;;;17.20;96.20;;;17.56;64.91;95137.69;5066453;28;20465;-54
2022/05/15 00:04:52;;;;;;;14.43;6.30;;;17.30;96.50;;;17.51;65.14;95134.75;5063065;28;20458;-54
2022/05/15 00:07:19;;;;;;;7.63;5.90;;;17.20;96.60;;;17.52;65.42;95144.41;5064254;28;20501;-53
2022/05/15 00:09:46;;;;;;;13.50;6.63;;;17.30;97.00;;;17.50;66.17;95143.72;5066720;28;20470;-54
2022/05/15 00:12:16;;;;;;;12.27;6.27;;;17.20;97.40;;;17.50;66.35;95149.03;5065963;28;20458;-55
2022/05/15 00:14:43;;;;;;;6.20;5.70;;;17.20;97.50;;;17.48;66.93;95139.59;5067939;28;20585;-56
2022/05/15 00:17:10;;;;;;;6.80;5.43;;;17.20;97.90;;;17.48;65.84;95144.94;5067050;28;20479;-55
2022/05/15 00:19:38;;;;;;;7.13;6.30;;;17.20;97.20;;;17.45;66.28;95138.13;5065378;28;20520;-56
2022/05/15 00:22:07;;;;;;;6.53;5.70;;;17.20;97.40;;;17.44;66.76;95138.28;5067468;28;20626;-55
2022/05/15 00:24:34;;;;;;;7.47;6.67;;;17.10;97.80;;;17.42;66.33;95135.00;5066396;28;20845;-56
2022/05/15 00:27:01;;;;;;;6.53;5.90;;;17.10;97.60;;;17.39;66.53;95141.47;5065880;28;20536;-55
2022/05/15 00:29:30;;;;;;;10.53;5.60;;;17.10;97.50;;;17.37;66.30;95140.84;5066199;28;21038;-57
2022/05/15 00:31:57;;;;;;;7.33;6.10;;;17.10;97.40;;;17.34;66.89;95144.66;5065746;28;20478;-54
2022/05/15 00:34:24;;;;;;;10.57;5.77;;;17.10;97.90;;;17.32;66.88;95135.19;5063061;28;20478;-54
2022/05/15 00:36:52;;;;;;;8.83;5.73;;;17.00;97.80;;;17.30;67.16;95142.53;5062830;28;20497;-55
2022/05/15 00:39:19;;;;;;;5.90;5.33;;;17.00;97.90;;;17.28;66.53;95145.34;5066468;28;21206;-56
2022/05/15 00:41:46;;;;;;;7.33;6.23;;;17.00;97.40;;;17.23;66.08;95133.59;5065124;28;20494;-54
2022/05/15 00:44:13;;;;;;;7.17;6.47;;;17.00;97.30;;;17.21;65.64;95139.06;5066941;28;20454;-54
2022/05/15 00:46:42;;;;;;;9.90;6.90;;;16.90;97.00;;;17.19;65.82;95143.75;5063913;28;20536;-56
2022/05/15 00:49:12;;;;;;;11.93;6.90;;;16.90;97.10;;;17.18;66.60;95140.28;5067354;28;20454;-53
2022/05/15 00:51:41;;;;;;;11.80;7.20;;;16.90;97.60;;;17.18;66.53;95139.41;5065306;28;20555;-57
2022/05/15 00:54:11;;;;;;;9.53;8.00;;;16.90;97.50;;;17.18;66.35;95142.06;5063803;28;21065;-56
2022/05/15 00:56:40;;;;;;;9.47;7.40;;;16.90;97.70;;;17.18;66.93;95145.59;5065406;28;20497;-58
2022/05/15 00:59:11;;;;;;;11.23;7.40;;;16.90;97.80;;;17.20;66.90;95140.09;5065022;28;20459;-56
2022/05/15 01:01:39;;;;;;;8.13;7.30;;;16.90;97.80;;;17.22;66.32;95131.94;5064351;28;20849;-56
2022/05/15 01:04:07;;;;;;;12.70;7.80;;;16.90;97.70;;;17.26;66.80;95141.22;5065578;28;20473;-54
2022/05/15 01:06:36;;;;;;;9.17;7.87;;;16.90;97.60;;;17.27;66.34;95129.59;5066920;28;20475;-57
2022/05/15 01:09:04;;;;;;;12.63;7.07;;;17.00;97.80;;;17.29;66.98;95138.19;5065470;28;20577;-55
2022/05/15 01:11:32;;;;;;;12.17;8.40;;;17.00;97.80;;;17.29;66.90;95146.19;5066031;28;20475;-56
2022/05/15 01:13:59;;;;;;;8.30;7.50;;;17.00;97.90;;;17.27;67.01;95140.22;5065752;28;20453;-55
2022/05/15 01:16:27;;;;;;;12.20;7.10;;;17.00;97.80;;;17.25;66.94;95140.41;5067614;28;20481;-56
2022/05/15 01:18:57;;;;;;;8.10;7.27;;;17.00;97.80;;;17.24;66.41;95143.22;5065352;28;20463;-54
2022/05/15 01:21:30;;;;;;;12.13;6.50;;;16.90;97.80;;;17.22;66.80;95139.91;5063830;28;20487;-55
2022/05/15 01:23:57;;;;;;;6.97;6.47;;;16.90;97.60;;;17.18;66.35;95136.75;5062280;28;20477;-53
2022/05/15 01:26:25;;;;;;;8.90;6.90;;;16.90;97.70;;;17.17;66.55;95141.25;5066887;28;20489;-55
2022/05/15 01:28:52;;;;;;;9.03;6.67;;;16.90;97.60;;;17.15;66.28;95140.63;5064361;28;20497;-54
2022/05/15 01:31:20;;;;;;;7.23;6.27;;;16.90;97.40;;;17.13;66.22;95133.81;5065740;28;20920;-53
2022/05/15 01:33:48;;;;;;;14.20;6.20;;;16.90;97.20;;;17.12;65.78;95135.66;5065999;28;20922;-56
2022/05/15 01:36:16;;;;;;;12.77;6.60;;;16.80;97.00;;;17.12;65.66;95140.97;5064382;28;20601;-54
2022/05/15 01:38:45;;;;;;;11.20;5.63;;;16.80;96.70;;;17.11;65.56;95143.78;5065872;28;20593;-55
2022/05/15 01:41:13;;;;;;;7.27;5.47;;;16.80;96.60;;;17.11;65.42;95139.31;5065350;28;20575;-55
2022/05/15 01:43:41;;;;;;;10.27;6.10;;;16.90;96.80;;;17.11;65.22;95139.31;5064451;28;20586;-56
2022/05/15 01:46:08;;;;;;;11.43;6.23;;;16.80;96.60;;;17.11;65.49;95144.63;5069605;28;20472;-53
2022/05/15 01:48:36;;;;;;;6.63;5.93;;;16.80;96.80;;;17.12;65.54;95134.84;5065171;28;20621;-56
2022/05/15 01:51:03;;;;;;;8.53;5.60;;;16.80;96.70;;;17.14;65.69;95140.78;5065984;28;20547;-53
2022/05/15 01:53:31;;;;;;;9.37;5.47;;;16.80;96.60;;;17.15;64.59;95137.97;5064790;28;20613;-53
2022/05/15 01:56:00;;;;;;;8.03;5.70;;;16.90;96.30;;;17.16;65.14;95133.47;5067080;28;20509;-55
2022/05/15 01:58:27;;;;;;;13.30;5.07;;;16.90;96.40;;;17.18;65.14;95142.06;5062751;28;20439;-54
2022/05/15 02:00:54;;;;;;;7.57;5.27;;;16.90;96.50;;;17.20;64.78;95138.25;5063286;28;20479;-55
2022/05/15 02:03:21;;;;;;;9.23;5.57;;;16.90;96.10;;;17.20;64.60;95127.63;5065639;28;20471;-55
2022/05/15 02:05:49;;;;;;;5.33;4.50;;;16.90;96.10;;;17.22;64.12;95139.91;5061059;28;20491;-54
2022/05/15 02:08:18;;;;;;;5.80;5.13;;;16.90;95.80;;;17.21;64.29;95139.06;5062221;28;20490;-55
2022/05/15 02:10:45;;;;;;;7.63;4.80;;;16.90;95.80;;;17.22;64.40;95137.25;5063092;28;20554;-55
2022/05/15 02:13:14;;;;;;;7.80;5.17;;;16.90;95.70;;;17.20;64.34;95132.94;5064064;28;20979;-55
2022/05/15 02:15:41;;;;;;;7.60;4.13;;;16.90;95.90;;;17.22;63.90;95132.75;5061604;28;20463;-54
2022/05/15 02:18:08;;;;;;;4.90;4.40;;;16.90;95.60;;;17.22;63.94;95134.59;5063394;28;20500;-55
2022/05/15 02:20:36;;;;;;;5.40;4.40;;;16.90;95.60;;;17.22;63.98;95134.59;5065365;28;21379;-53
2022/05/15 02:23:03;;;;;;;6.87;5.13;;;16.90;95.60;;;17.24;63.66;95143.22;5062541;28;20455;-54
2022/05/15 02:25:31;;;;;;;5.23;4.77;;;16.90;95.30;;;17.24;63.98;95148.53;5066507;28;20490;-54
2022/05/15 02:27:59;;;;;;;5.77;4.87;;;16.90;95.60;;;17.21;63.59;95149.72;5064808;28;20555;-55
2022/05/15 02:30:28;;;;;;;12.80;5.00;;;16.90;95.20;;;17.19;63.81;95146.41;5065776;28;20814;-55
2022/05/15 02:32:55;;;;;;;5.50;4.60;;;16.90;95.60;;;17.17;64.22;95146.56;5062562;28;20455;-55
2022/05/15 02:35:22;;;;;;;10.93;5.87;;;16.90;95.60;;;17.16;63.73;95152.06;5066093;28;20525;-54
2022/05/15 02:37:50;;;;;;;7.13;4.27;;;16.90;95.40;;;17.14;63.37;95154.91;5063907;28;20481;-54
2022/05/15 02:40:18;;;;;;;5.10;4.40;;;16.90;95.10;;;17.12;63.96;95156.91;5063733;28;20487;-56
2022/05/15 02:42:45;;;;;;;8.17;5.17;;;16.90;95.40;;;17.10;64.09;95156.25;5062007;28;20496;-54
2022/05/15 02:45:13;;;;;;;9.37;5.60;;;16.80;95.60;;;17.08;64.18;95160.09;5063068;28;20590;-56
2022/05/15 02:47:41;;;;;;;4.80;4.30;;;16.80;95.60;;;17.05;63.60;95161.25;5063804;28;20494;-53
2022/05/15 02:52:55;;;;;;;6.13;5.27;;;16.80;95.10;;;17.00;63.39;95158.28;5062701;28;20481;-54
2022/05/15 02:55:23;;;;;;;6.80;4.83;;;16.70;95.00;;;16.97;63.39;95164.78;5066294;28;20533;-55
2022/05/15 02:57:50;;;;;;;10.00;4.50;;;16.70;94.80;;;16.96;63.20;95154.31;5066603;28;20882;-54
2022/05/15 03:00:19;;;;;;;4.40;4.00;;;16.70;94.80;;;16.95;62.96;95160.66;5066674;28;20478;-57
2022/05/15 03:02:47;;;;;;;7.67;4.47;;;16.70;94.80;;;16.94;63.68;95166.94;5066735;28;20504;-55
2022/05/15 03:05:15;;;;;;;5.20;4.50;;;16.70;95.00;;;16.92;63.92;95167.13;5065901;28;20479;-54
2022/05/15 03:07:43;;;;;;;5.13;4.73;;;16.70;95.20;;;16.91;63.71;95175.25;5069080;28;20543;-54
2022/05/15 03:10:11;;;;;;;5.90;5.30;;;16.70;95.00;;;16.91;63.21;95165.47;5064430;28;21030;-55
2022/05/15 03:12:38;;;;;;;6.83;4.43;;;16.60;94.90;;;16.91;63.70;95172.59;5066529;28;20459;-55
2022/05/15 03:15:07;;;;;;;6.20;4.50;;;16.60;95.00;;;16.90;63.43;95182.41;5067963;28;20462;-54
2022/05/15 03:17:34;;;;;;;12.03;4.83;;;16.60;95.00;;;16.89;63.53;95177.28;5066025;28;20467;-53
2022/05/15 03:20:03;;;;;;;6.27;4.90;;;16.60;95.00;;;16.88;63.48;95178.25;5067200;28;20550;-53
2022/05/15 03:22:30;;;;;;;7.33;5.33;;;16.60;95.00;;;16.87;63.54;95184.56;5065351;28;20498;-55
2022/05/15 03:24:58;;;;;;;14.77;5.07;;;16.60;95.00;;;16.84;63.54;95178.56;5069333;28;20907;-55
2022/05/15 03:27:25;;;;;;;5.30;4.80;;;16.60;95.00;;;16.82;63.10;95182.38;5066285;28;20502;-55
2022/05/15 03:29:53;;;;;;;5.37;4.80;;;16.60;94.90;;;16.81;63.34;95180.75;5067432;28;20490;-56
2022/05/15 03:32:20;;;;;;;14.97;6.40;;;16.50;94.90;;;16.80;63.28;95177.25;5066487;28;20892;-56
2022/05/15 03:34:48;;;;;;;7.67;5.13;;;16.50;94.90;;;16.80;63.42;95179.09;5067503;28;20474;-56
2022/05/15 03:37:17;;;;;;;6.63;5.40;;;16.50;94.90;;;16.82;63.40;95179.72;5064684;28;20469;-54
2022/05/15 03:39:44;;;;;;;6.57;4.83;;;16.60;95.00;;;16.84;63.73;95177.75;5068818;28;20458;-55
2022/05/15 03:42:12;;;;;;;8.83;5.40;;;16.60;95.20;;;16.87;63.75;95179.25;5062595;28;20483;-56
2022/05/15 03:44:39;;;;;;;9.87;5.90;;;16.60;95.00;;;16.89;63.58;95183.41;5067253;28;20866;-55
2022/05/15 03:47:06;;;;;;;5.23;4.60;;;16.60;95.00;;;16.91;63.28;95180.59;5067256;28;20475;-54
2022/05/15 03:49:34;;;;;;;8.00;4.17;;;16.60;94.80;;;16.91;62.98;95180.59;5064651;28;20501;-53
2022/05/15 03:52:02;;;;;;;10.47;5.40;;;16.60;94.80;;;16.95;63.17;95187.22;5064514;28;20474;-54
2022/05/15 03:54:31;;;;;;;9.63;5.60;;;16.70;95.00;;;16.98;63.01;95190.34;5066914;28;21092;-56
2022/05/15 03:56:58;;;;;;;10.80;4.23;;;16.70;94.60;;;17.02;63.13;95193.50;5066281;28;20919;-54
2022/05/15 03:59:29;;;;;;;13.97;4.40;;;16.70;94.90;;;17.05;62.89;95187.81;5064383;28;20548;-55
2022/05/15 04:01:56;;;;;;;6.93;4.27;;;16.80;94.80;;;17.09;63.19;95194.47;5065151;28;20478;-55
2022/05/15 04:04:23;;;;;;;7.60;4.67;;;16.80;95.00;;;17.10;62.98;95196.13;5065230;28;20977;-55
2022/05/15 04:06:51;;;;;;;7.40;4.13;;;16.80;94.70;;;17.11;63.14;95192.44;5067278;28;21084;-56
2022/05/15 04:09:18;;;;;;;6.20;4.63;;;16.80;94.70;;;17.11;63.15;95195.09;5063516;28;20514;-55
2022/05/15 04:11:47;;;;;;;6.13;4.47;;;16.90;94.60;;;17.11;63.01;95192.44;5063447;28;20483;-55
2022/05/15 04:14:14;;;;;;;7.23;4.73;;;16.90;94.60;;;17.11;62.63;95195.09;5066325;28;20471;-55
2022/05/15 04:16:41;;;;;;;9.47;4.40;;;16.80;94.60;;;17.12;63.01;95196.78;5067690;28;20536;-55
2022/05/15 04:19:08;;;;;;;10.27;4.67;;;16.90;94.80;;;17.15;63.03;95199.09;5063673;28;20569;-57
2022/05/15 04:21:37;;;;;;;8.60;4.83;;;16.90;94.80;;;17.17;62.76;95205.06;5070484;28;21024;-55
2022/05/15 04:24:06;;;;;;;6.30;5.70;;;16.90;94.60;;;17.19;62.86;95200.38;5064779;28;20482;-56
2022/05/15 04:26:34;;;;;;;13.63;5.77;;;16.90;94.80;;;17.22;63.08;95201.88;5064983;28;20475;-55
2022/05/15 04:29:03;;;;;;;7.40;5.10;;;16.90;94.70;;;17.26;62.84;95200.53;5066550;28;21018;-55
2022/05/15 04:31:30;;;;;;;33.17;7.50;;;17.00;94.70;;;17.31;62.73;95197.38;5065554;28;20471;-55
2022/05/15 04:33:57;;;;;;;12.30;5.53;;;17.00;94.40;;;17.33;62.38;95206.81;5062762;28;20455;-55
2022/05/15 04:36:25;;;;;;;7.37;5.00;;;17.00;94.20;;;17.39;62.20;95205.28;5067526;28;20479;-56
2022/05/15 04:38:52;;;;;;;11.10;6.43;;;17.10;94.40;;;17.44;62.29;95210.09;5066149;28;20910;-55
2022/05/15 04:41:19;;;;;;;12.40;6.57;;;17.20;94.20;;;17.48;62.56;95204.25;5065273;28;20479;-56
2022/05/15 04:43:48;;;;;;;13.60;6.60;;;17.20;94.30;;;17.54;62.23;95202.75;5065637;28;20456;-57
2022/05/15 04:46:17;;;;;;;13.60;6.27;;;17.20;94.40;;;17.61;62.01;95208.19;5064603;28;20478;-58
2022/05/15 04:48:44;;;;;;;13.20;5.67;;;17.30;94.40;;;17.66;62.24;95216.44;5065892;28;20906;-54
2022/05/15 04:51:12;;;;;;;9.20;6.63;;;17.30;94.50;;;17.73;62.89;95209.44;5065725;28;20479;-57
2022/05/15 04:53:39;;;;;;;9.43;5.67;;;17.40;94.60;;;17.75;62.53;95204.75;5061604;28;21177;-55
2022/05/15 04:56:06;;;;;;;13.07;6.97;;;17.50;94.60;;;17.83;62.61;95212.72;5061732;28;20478;-56
2022/05/15 04:58:34;;;;;;;21.20;9.93;;;17.50;94.80;;;17.90;62.66;95211.00;5062592;28;20463;-57
2022/05/15 05:01:01;;;;;;;15.10;7.20;;;17.60;94.90;;;17.98;62.97;95209.31;5063169;28;20486;-56
2022/05/15 05:03:30;;;;;;;12.23;6.90;;;17.60;95.10;;;18.08;63.06;95212.56;5061822;28;20470;-56
2022/05/15 05:05:57;;;;;;;13.57;6.77;;;17.80;95.40;;;18.18;63.00;95215.81;5063014;28;20486;-55
2022/05/15 05:08:24;;;;;;;13.40;7.97;;;17.90;95.70;;;18.32;63.42;95222.19;5063738;28;20502;-54
2022/05/15 05:10:51;;;;;;;18.63;8.57;;;18.00;95.40;;;18.42;63.34;95225.44;5057270;28;20482;-56
2022/05/15 05:13:19;;;;;;;14.70;7.90;;;18.10;95.40;;;18.53;63.34;95224.19;5065808;28;20983;-56
2022/05/15 05:15:46;;;;;;;15.60;7.43;;;18.20;95.50;;;18.65;63.29;95221.88;5062881;28;20486;-58
2022/05/15 05:18:15;;;;;;;12.90;7.30;;;18.30;95.40;;;18.76;63.32;95226.78;5065671;28;20462;-57
2022/05/15 05:20:43;;;;;;;21.17;8.27;;;18.40;95.30;;;18.90;62.92;95229.66;5065035;28;20573;-56
2022/05/15 05:23:11;;;;;;;11.60;6.90;;;18.50;95.30;;;19.05;62.87;95224.34;5065935;28;20538;-56
2022/05/15 05:25:38;;;;;;;12.90;6.50;;;18.60;95.00;;;19.19;62.49;95223.53;5066557;28;20971;-54
2022/05/15 05:28:06;;;;;;;14.33;7.00;;;18.80;94.90;;;19.37;61.21;95223.16;5064896;28;20458;-54
2022/05/15 05:30:34;;;;;;;8.93;6.10;;;18.90;94.30;;;19.55;61.05;95221.91;5063890;28;20474;-58
2022/05/15 05:33:01;;;;;;;18.67;6.43;;;19.10;94.00;;;19.73;60.77;95218.84;5065306;28;20450;-58
2022/05/15 05:35:28;;;;;;;11.00;5.87;;;19.30;93.60;;;19.89;60.23;95218.63;5063322;28;20547;-56
2022/05/15 05:37:58;;;;;;;7.63;5.73;;;19.40;93.40;;;20.06;59.66;95213.88;5065273;28;20461;-57
2022/05/15 05:40:26;;;;;;;16.73;5.53;;;19.60;93.00;;;20.24;59.23;95216.13;5064681;28;20470;-54
2022/05/15 05:42:53;;;;;;;8.37;5.07;;;19.70;92.60;;;20.45;58.98;95217.97;5065139;28;20662;-55
2022/05/15 05:45:21;;;;;;;14.33;6.77;;;19.90;92.40;;;20.65;58.73;95220.81;5062456;28;20558;-56
2022/05/15 05:47:48;;;;;;;7.97;5.90;;;20.20;92.20;;;20.84;58.20;95218.50;5064023;28;20471;-57
2022/05/15 05:50:17;;;;;;;10.13;5.67;;;20.30;91.70;;;21.03;58.04;95209.75;5064420;28;20923;-59
2022/05/15 05:52:44;;;;;;;10.90;5.53;;;20.50;91.50;;;21.21;57.84;95213.75;5063223;28;20987;-56
2022/05/15 05:55:15;;;;;;;6.77;5.50;;;20.70;91.40;;;21.37;57.70;95215.31;5063362;28;20471;-58
2022/05/15 05:57:43;;;;;;;9.57;5.07;;;20.90;91.40;;;21.54;57.27;95221.19;5060482;28;20462;-57
2022/05/15 06:00:13;;;;;;;8.27;4.90;;;21.00;91.00;;;21.71;57.23;95211.75;5065975;28;21399;-57
2022/05/15 06:02:41;;;;;;;22.57;7.83;;;21.20;91.00;;;21.92;56.56;95218.00;5062114;28;20862;-56
2022/05/15 06:05:08;;;;;;;27.60;9.83;;;21.40;90.60;;;22.09;55.96;95203.22;5061829;28;21881;-55
2022/05/15 06:07:37;;;;;;;8.23;5.60;;;21.60;90.20;;;22.31;56.01;95213.78;5060966;28;20451;-55
2022/05/15 06:10:06;;;;;;;7.97;5.13;;;21.80;90.00;;;22.52;55.77;95213.56;5063848;28;20567;-55
2022/05/15 06:12:35;;;;;;;9.50;5.33;;;22.00;89.90;;;22.71;55.25;95217.31;5059883;28;20977;-57
2022/05/15 06:15:02;;;;;;;14.53;5.67;;;22.10;88.90;;;22.88;54.32;95215.03;5065180;28;20474;-54
2022/05/15 06:17:29;;;;;;;7.90;5.43;;;22.30;87.50;;;23.02;54.36;95213.16;5063327;28;20944;-54
2022/05/15 06:19:57;;;;;;;15.47;6.57;;;22.50;87.80;;;23.19;54.54;95220.78;5064923;28;20458;-57
2022/05/15 06:22:24;;;;;;;8.30;5.30;;;22.60;87.00;;;23.38;54.06;95227.16;5061923;28;20456;-57
2022/05/15 06:24:52;;;;;;;10.37;5.63;;;22.80;85.80;;;23.55;53.88;95227.50;5065648;28;20469;-58
2022/05/15 06:27:19;;;;;;;28.87;5.20;;;23.00;85.30;;;23.73;52.79;95224.09;5063639;28;20884;-59
2022/05/15 06:29:48;;;;;;;9.30;5.17;;;23.10;84.00;;;23.93;53.24;95224.84;5064563;28;20490;-58
2022/05/15 06:32:15;;;;;;;22.93;4.90;;;23.40;84.30;;;24.11;52.90;95216.09;5063572;28;20466;-57
2022/05/15 06:34:42;;;;;;;5.80;4.97;;;23.50;83.50;;;24.30;52.57;95219.69;5065540;28;20854;-54
2022/05/15 06:37:10;;;;;;;9.57;5.20;;;23.70;82.70;;;24.42;51.20;95225.19;5066828;28;20987;-58
2022/05/15 06:39:37;;;;;;;8.47;4.67;;;23.90;81.10;;;24.52;51.11;95232.78;5067354;28;20450;-59
2022/05/15 06:42:05;;;;;;;5.60;4.23;;;24.00;80.10;;;24.57;50.32;95221.38;5066155;28;20478;-57
2022/05/15 06:44:32;;;;;;;9.60;5.00;;;24.10;78.50;;;24.61;51.13;95225.31;5066840;28;20466;-54
2022/05/15 06:47:01;;;;;;;11.77;4.87;;;24.10;79.00;;;24.69;49.86;95220.50;5068436;28;20528;-58
2022/05/15 06:49:29;;;;;;;7.13;4.87;;;24.20;78.10;;;24.81;50.43;95215.19;5066408;28;20561;-58
2022/05/15 06:51:56;;;;;;;8.53;4.90;;;24.20;77.70;;;24.96;50.02;95219.44;5066244;28;20469;-56
2022/05/15 06:54:24;;;;;;;12.83;4.57;;;24.40;76.40;;;25.06;49.60;95217.84;5064390;28;20471;-53
2022/05/15 06:59:35;;;;;;;3.60;3.30;;;24.60;73.60;;;25.32;47.92;95221.38;5064207;28;20507;-57
2022/05/15 07:02:05;;;;;;;8.77;3.63;;;24.80;71.80;;;25.41;47.89;95217.31;5062448;28;20508;-56
2022/05/15 07:04:32;;;;;;;4.07;3.70;;;24.80;71.50;;;25.47;47.16;95217.47;5068982;28;20458;-57
2022/05/15 07:06:59;;;;;;;9.10;3.73;;;24.90;70.40;;;25.45;46.21;95224.97;5067071;28;20473;-58
2022/05/15 07:09:27;;;;;;;8.77;3.40;;;24.90;68.10;;;25.46;46.69;95221.22;5064699;28;20492;-58
2022/05/15 07:11:55;;;;;;;3.23;3.00;;;24.90;69.40;;;25.51;46.67;95224.88;5066494;28;20486;-57
2022/05/15 07:14:22;;;;;;;10.23;3.23;;;25.00;68.10;;;25.55;46.13;95227.97;5068305;28;20959;-58
2022/05/15 07:16:49;;;;;;;3.87;3.13;;;25.00;66.30;;;25.61;45.54;95229.75;5067512;28;20862;-58
2022/05/15 07:19:18;;;;;;;7.53;3.63;;;25.10;66.10;;;25.70;45.81;95228.41;5067891;28;20447;-57
2022/05/15 07:21:45;;;;;;;4.43;2.60;;;25.10;66.90;;;25.84;44.98;95217.44;5067244;28;20470;-55
2022/05/15 07:24:13;;;;;;;3.67;2.70;;;25.20;65.10;;;25.95;44.49;95224.78;5068713;28;20804;-58
2022/05/15 07:26:44;;;;;;;6.20;2.87;;;25.40;63.50;;;26.06;44.69;95225.91;5064596;28;21009;-56
2022/05/15 07:29:12;;;;;;;4.37;3.07;;;25.50;63.90;;;26.19;43.88;95231.09;5065857;28;20596;-58
2022/05/15 07:31:39;;;;;;;3.10;2.80;;;25.60;62.00;;;26.29;43.49;95236.78;5065961;28;20470;-54
2022/05/15 07:34:07;;;;;;;3.13;2.33;;;25.70;61.20;;;26.36;41.15;95220.50;5067467;28;20458;-54
2022/05/15 07:36:35;;;;;;;3.00;2.80;;;25.80;57.80;;;26.41;42.19;95230.59;5067491;28;20474;-54
2022/05/15 07:39:03;;;;;;;6.50;2.77;;;25.90;58.20;;;26.44;41.76;95227.44;5064946;28;20455;-57
2022/05/15 07:41:30;;;;;;;2.47;2.37;;;25.90;57.20;;;26.41;41.51;95227.91;5066920;28;20895;-56
2022/05/15 07:43:57;;;;;;;4.70;2.40;;;25.90;57.30;;;26.38;41.04;95231.88;5067093;28;21010;-56
2022/05/15 07:46:25;;;;;;;4.97;3.20;;;25.80;55.90;;;26.34;42.17;95241.50;5067085;28;20475;-57
2022/05/15 07:48:54;;;;;;;5.53;3.13;;;25.80;57.60;;;26.33;41.89;95231.75;5066158;28;20784;-56
2022/05/15 07:51:21;;;;;;;4.50;2.03;;;25.80;57.00;;;26.39;41.94;95236.22;5067010;28;20568;-56
2022/05/15 07:53:50;;;;;;;3.60;3.33;;;25.80;56.80;;;26.51;41.17;95238.13;5066037;28;20529;-58
2022/05/15 07:56:17;;;;;;;8.53;3.00;;;25.90;56.60;;;26.62;41.28;95240.03;5068085;28;20466;-56
2022/05/15 07:58:44;;;;;;;3.90;2.40;;;26.00;56.50;;;26.72;40.75;95237.59;5066529;28;20443;-57
2022/05/15 08:01:12;;;;;;;8.57;2.60;;;26.10;55.00;;;26.84;39.19;95241.16;5066613;28;20482;-56
2022/05/15 08:03:43;;;;;;;6.63;2.00;;;26.20;53.10;;;26.93;39.00;95236.22;5066858;28;20450;-56
2022/05/15 08:08:57;;;;;;;6.90;2.60;;;26.50;51.80;;;27.05;39.40;95247.06;5066139;28;20483;-57
2022/05/15 08:11:28;;;;;;;4.40;2.57;;;26.50;52.90;;;27.10;39.01;95240.94;5066580;28;20866;-56
2022/05/15 08:13:55;;;;;;;3.77;2.17;;;26.50;52.60;;;27.10;36.88;95246.34;5064923;28;20969;-56
2022/05/15 08:16:23;;;;;;;7.60;3.10;;;26.60;50.40;;;27.04;37.77;95248.09;5067345;28;20917;-56
2022/05/15 08:24:21;;;;;;;2.50;2.30;;;26.50;49.90;;;27.01;38.66;95253.97;5066143;28;20618;-55
2022/05/15 08:26:49;;;;;;;7.23;2.50;;;26.50;51.50;;;27.07;38.08;95257.63;5066686;28;20470;-56
2022/05/15 08:29:16;;;;;;;3.20;2.63;;;26.50;50.90;;;27.12;38.13;95252.31;5066486;28;20450;-56
2022/05/15 08:31:43;;;;;;;3.80;2.80;;;26.60;51.10;;;27.24;37.81;95252.34;5065511;28;20474;-56
2022/05/15 08:34:11;;;;;;;7.43;2.53;;;26.70;50.50;;;27.38;37.94;95259.16;5066419;28;20486;-56
2022/05/15 08:36:41;;;;;;;3.67;1.80;;;26.80;50.50;;;27.57;37.43;95245.53;5066581;28;20478;-56
2022/05/15 08:39:09;;;;;;;3.23;2.90;;;27.00;49.90;;;27.73;36.56;95244.78;5066473;28;20974;-57
2022/05/15 08:41:44;;;;;;;5.37;1.40;;;27.10;48.50;;;27.83;36.15;95244.19;5066032;28;20474;-55
2022/05/15 08:44:13;;;;;;;12.17;2.23;;;27.30;48.00;;;27.94;34.33;95243.31;5066559;28;20446;-55
2022/05/15 08:47:01;;;;;;;5.00;1.70;;;27.40;46.50;;;28.07;35.67;95247.66;5066343;28;20470;-57
2022/05/15 08:49:31;;;;;;;6.47;2.20;;;27.50;48.10;;;28.28;36.27;95245.34;5062722;28;20447;-55
2022/05/15 08:52:08;;;;;;;4.40;2.63;;;27.70;48.40;;;28.48;36.25;95245.72;5062069;28;20830;-56
2022/05/15 08:54:37;;;;;;;6.80;2.30;;;27.90;48.30;;;28.71;36.07;95244.00;5064859;28;20451;-54
2022/05/15 08:57:07;;;;;;;3.60;1.70;;;28.10;48.10;;;28.95;35.94;95250.91;5064613;28;20473;-57
2022/05/15 08:59:39;;;;;;;3.07;2.73;;;28.40;47.60;;;29.20;35.38;95246.13;5065694;28;20493;-57
2022/05/15 09:02:06;;;;;;;4.80;2.07;;;28.50;46.80;;;29.40;34.58;95245.63;5064709;28;20470;-57
2022/05/15 09:04:33;;;;;;;11.87;1.83;;;28.80;46.50;;;29.59;34.23;95251.56;5065214;28;20454;-57
2022/05/15 09:07:10;;;;;;;2.07;1.80;;;29.00;46.20;;;29.76;34.43;95241.50;5065807;28;20474;-57
2022/05/15 09:09:47;;;;;;;3.83;2.30;;;29.10;45.60;;;29.91;33.36;95245.50;5065391;28;21103;-58
2022/05/15 09:12:18;;;;;;;5.40;2.67;;;29.30;45.10;;;29.97;32.76;95239.06;5063920;28;20458;-56
2022/05/15 09:14:59;;;;;;;9.40;2.50;;;29.40;44.20;;;29.85;31.82;95242.75;5065108;28;20439;-57
2022/05/15 09:17:33;;;;;;;8.97;2.20;;;29.30;42.90;;;29.76;33.49;95240.66;5064120;28;20449;-58
2022/05/15 09:20:06;;;;;;;4.13;1.97;;;29.20;43.90;;;29.75;32.53;95236.34;5064459;28;20573;-56
2022/05/15 09:22:37;;;;;;;5.13;2.73;;;29.20;43.40;;;29.77;32.75;95231.47;5061890;28;20926;-57
2022/05/15 09:25:12;;;;;;;13.73;2.50;;;29.20;43.20;;;29.83;32.75;95233.19;5065402;28;20537;-55
2022/05/15 09:27:40;;;;;;;16.20;2.50;;;29.30;43.70;;;29.88;32.96;95230.53;5064410;28;20438;-59
2022/05/15 09:30:12;;;;;;;7.53;2.43;;;29.30;43.20;;;29.89;32.50;95229.47;5064485;28;20501;-57
2022/05/15 09:32:41;;;;;;;8.03;2.77;;;29.30;43.30;;;29.93;32.87;95237.94;5063255;28;20569;-56
2022/05/15 09:35:20;;;;;;;5.93;2.77;;;29.30;42.90;;;29.98;32.81;95233.38;5063503;28;20539;-56
2022/05/15 09:40:40;;;;;;;7.90;2.70;;;29.40;42.50;;;30.01;31.38;95235.59;5064636;28;20445;-57
2022/05/15 09:43:31;;;;;;;5.47;2.93;;;29.40;42.10;;;29.87;30.65;95226.22;5065111;28;20442;-56
2022/05/15 09:45:59;;;;;;;3.07;2.10;;;29.40;40.60;;;29.60;31.73;95231.53;5062634;28;20508;-56
2022/05/15 09:48:31;;;;;;;2.00;1.90;;;29.10;41.50;;;29.42;31.92;95232.63;5064742;28;20959;-56
2022/05/15 09:51:00;;;;;;;6.33;4.30;;;29.00;41.50;;;29.30;32.21;95236.25;5063908;28;20509;-56
2022/05/15 09:53:36;;;;;;;5.83;2.17;;;28.80;42.30;;;29.27;31.96;95225.94;5061437;28;20454;-56
2022/05/15 09:56:05;;;;;;;3.67;2.00;;;28.70;41.90;;;29.22;31.56;95228.56;5064883;28;20465;-54
2022/05/15 09:58:40;;;;;;;3.20;1.87;;;28.70;40.50;;;29.10;31.55;95220.50;5064000;28;20446;-55
2022/05/15 10:01:25;;;;;;;3.97;2.37;;;28.60;41.10;;;28.98;30.96;95223.28;5064170;28;20461;-56
2022/05/15 10:03:54;;;;;;;12.33;2.83;;;28.50;41.00;;;28.86;31.49;95219.88;5065900;28;20966;-56
2022/05/15 10:06:25;;;;;;;2.93;1.63;;;28.40;40.30;;;28.73;31.48;95218.28;5066171;28;20481;-56
2022/05/15 10:09:10;;;;;;;5.70;1.73;;;28.20;41.50;;;28.70;31.87;95217.97;5068797;28;20443;-56
2022/05/15 10:11:38;;;;;;;4.67;2.33;;;28.20;41.20;;;28.72;32.36;95224.78;5065473;28;21044;-56
2022/05/15 10:14:08;;;;;;;7.53;3.40;;;28.20;41.80;;;28.77;32.14;95216.75;5068638;28;20450;-56
2022/05/15 10:16:39;;;;;;;9.73;3.13;;;28.20;41.80;;;28.85;32.34;95222.81;5067248;28;20466;-57
2022/05/15 10:19:10;;;;;;;3.43;2.10;;;28.30;41.90;;;28.90;31.97;95220.19;5068359;28;20446;-57
2022/05/15 10:21:41;;;;;;;6.50;2.50;;;28.40;41.30;;;28.88;31.74;95223.16;5066087;28;21072;-56
2022/05/15 10:24:13;;;;;;;4.10;2.60;;;28.30;41.60;;;28.89;32.16;95218.53;5068921;28;20458;-57
2022/05/15 10:26:48;;;;;;;1.90;1.70;;;28.30;42.00;;;28.86;30.17;95213.63;5068841;28;20484;-57
2022/05/15 10:29:23;;;;;;;3.93;2.83;;;28.30;40.10;;;28.75;31.23;95209.91;5066951;28;20458;-57
2022/05/15 10:31:54;;;;;;;4.70;2.33;;;28.20;41.10;;;28.72;32.25;95213.13;5067018;28;20599;-58
2022/05/15 10:34:25;;;;;;;2.40;2.20;;;28.20;42.10;;;28.74;32.59;95211.81;5066758;28;20795;-56
2022/05/15 10:37:04;;;;;;;10.43;2.80;;;28.20;41.70;;;28.79;31.85;95202.97;5065252;28;20994;-56
2022/05/15 10:39:40;;;;;;;4.23;2.10;;;28.20;42.10;;;28.85;31.86;95207.38;5066614;28;20446;-56
2022/05/15 10:42:13;;;;;;;2.53;2.30;;;28.30;41.60;;;28.81;31.76;95205.44;5068023;28;21526;-56